createdAt,value
2023-02-27T00:02:53.427Z,100513.19
2023-02-27T00:05:56.445Z,100524.47
2023-02-27T00:08:58.652Z,100528.81
2023-02-27T00:12:01.613Z,100536.91
2023-02-27T00:15:09.896Z,100539.91
2023-02-27T00:18:12.717Z,100539.91
2023-02-27T00:21:14.894Z,100546.97
2023-02-27T00:24:17.459Z,100548.72
2023-02-27T00:27:19.612Z,100547.62
2023-02-27T00:30:22.460Z,100555.56
2023-02-27T00:33:24.729Z,100558.06
2023-02-27T00:36:27.143Z,100560.13
2023-02-27T00:39:29.325Z,100552.31
2023-02-27T00:42:32.212Z,100558.28
2023-02-27T00:45:34.450Z,100560.31
2023-02-27T00:48:36.909Z,100555.00
2023-02-27T00:51:39.738Z,100567.59
2023-02-27T00:54:42.273Z,100565.75
2023-02-27T00:57:44.547Z,100568.75
2023-02-27T01:00:47.007Z,100579.91
2023-02-27T01:03:49.171Z,100585.44
2023-02-27T01:06:52.553Z,100592.78
2023-02-27T01:09:54.940Z,100589.50
2023-02-27T01:12:57.396Z,100592.41
2023-02-27T01:15:59.564Z,100585.66
2023-02-27T01:19:04.030Z,100597.72
2023-02-27T01:22:06.432Z,100591.66
2023-02-27T01:25:10.038Z,100592.97
2023-02-27T01:28:15.060Z,100592.25
2023-02-27T01:31:19.021Z,100591.22
2023-02-27T01:34:21.889Z,100593.69
2023-02-27T01:37:24.391Z,100589.22
2023-02-27T01:40:27.448Z,100587.62
2023-02-27T01:43:30.080Z,100589.06
2023-02-27T01:46:33.321Z,100594.22
2023-02-27T01:49:35.809Z,100590.38
2023-02-27T01:52:39.958Z,100593.75
2023-02-27T01:55:43.407Z,100588.66
2023-02-27T01:58:47.720Z,100589.56
2023-02-27T02:01:51.442Z,100593.09
2023-02-27T02:04:55.228Z,100596.81
2023-02-27T02:07:58.334Z,100600.19
2023-02-27T02:11:02.010Z,100604.91
2023-02-27T02:14:04.560Z,100615.19
2023-02-27T02:17:31.924Z,100612.63
2023-02-27T02:21:11.637Z,100616.81
2023-02-27T02:24:22.857Z,100630.56
2023-02-27T02:27:51.533Z,100627.00
2023-02-27T02:31:19.822Z,100645.22
2023-02-27T02:34:48.973Z,100643.94
2023-02-27T02:38:03.056Z,100647.41
2023-02-27T02:41:20.384Z,100645.28
2023-02-27T02:44:31.417Z,100639.34
2023-02-27T02:47:56.139Z,100644.44
2023-02-27T02:51:15.972Z,100648.56
2023-02-27T02:54:28.782Z,100650.25
2023-02-27T02:57:37.446Z,100648.28
2023-02-27T03:00:47.656Z,100653.19
2023-02-27T03:03:59.177Z,100651.34
2023-02-27T03:07:11.563Z,100657.00
2023-02-27T03:10:22.506Z,100654.97
2023-02-27T03:13:38.343Z,100661.50
2023-02-27T03:16:44.757Z,100663.69
2023-02-27T03:19:52.457Z,100668.25
2023-02-27T03:22:59.930Z,100664.56
2023-02-27T03:26:03.755Z,100676.94
2023-02-27T03:29:15.164Z,100677.81
2023-02-27T03:32:23.524Z,100680.59
2023-02-27T03:35:35.870Z,100682.62
2023-02-27T03:38:44.696Z,100683.25
2023-02-27T03:42:14.981Z,100685.88
2023-02-27T03:45:40.527Z,100687.84
2023-02-27T03:48:44.729Z,100692.97
2023-02-27T03:51:48.365Z,100698.88
2023-02-27T03:54:59.908Z,100698.75
2023-02-27T03:58:02.646Z,100701.66
2023-02-27T04:01:05.046Z,100702.22
2023-02-27T04:04:11.700Z,100706.28
2023-02-27T04:07:24.626Z,100708.75
2023-02-27T04:10:51.751Z,100704.72
2023-02-27T04:14:10.113Z,100695.75
2023-02-27T04:17:26.008Z,100703.19
2023-02-27T04:20:49.920Z,100709.00
2023-02-27T04:23:58.719Z,100710.00
2023-02-27T04:27:14.293Z,100707.38
2023-02-27T04:30:48.423Z,100719.75
2023-02-27T04:34:02.786Z,100718.53
2023-02-27T04:37:22.433Z,100722.88
2023-02-27T04:40:32.592Z,100728.63
2023-02-27T04:43:38.883Z,100732.44
2023-02-27T04:46:44.102Z,100734.34
2023-02-27T04:50:01.085Z,100727.06
2023-02-27T04:53:20.146Z,100736.31
2023-02-27T04:56:28.656Z,100724.97
2023-02-27T04:59:36.376Z,100731.06
2023-02-27T05:02:47.752Z,100742.59
2023-02-27T05:05:52.842Z,100739.78
2023-02-27T05:09:43.008Z,100735.06
2023-02-27T05:12:50.853Z,100741.84
2023-02-27T05:15:59.774Z,100752.81
2023-02-27T05:19:03.727Z,100757.41
2023-02-27T05:22:32.304Z,100770.41
2023-02-27T05:25:41.437Z,100770.50
2023-02-27T05:28:59.133Z,100774.25
2023-02-27T05:32:22.556Z,100768.47
2023-02-27T05:35:31.437Z,100768.13
2023-02-27T05:38:58.764Z,100783.03
2023-02-27T05:42:23.704Z,100779.91
2023-02-27T05:45:30.542Z,100790.84
2023-02-27T05:48:43.260Z,100802.03
2023-02-27T05:51:49.796Z,100800.59
2023-02-27T05:54:59.143Z,100806.47
2023-02-27T05:58:27.323Z,100808.16
2023-02-27T06:01:30.281Z,100821.28
2023-02-27T06:04:32.883Z,100818.59
2023-02-27T06:07:35.998Z,100820.34
2023-02-27T06:10:38.712Z,100826.16
2023-02-27T06:13:42.374Z,100827.81
2023-02-27T06:16:45.412Z,100831.06
2023-02-27T06:19:48.013Z,100841.75
2023-02-27T06:22:50.432Z,100845.66
2023-02-27T06:25:53.225Z,100860.87
2023-02-27T06:28:56.019Z,100867.69
2023-02-27T06:31:58.317Z,100864.31
2023-02-27T06:35:03.133Z,100875.50
2023-02-27T06:38:05.916Z,100892.78
2023-02-27T06:41:08.665Z,100898.56
2023-02-27T06:44:10.891Z,100893.81
2023-02-27T06:47:13.412Z,100893.84
2023-02-27T06:50:15.663Z,100904.97
2023-02-27T06:53:18.120Z,100907.69
2023-02-27T06:56:20.433Z,100917.75
2023-02-27T06:59:23.467Z,100913.09
2023-02-27T07:02:25.773Z,100921.91
2023-02-27T07:05:28.252Z,100922.34
2023-02-27T07:08:30.606Z,100925.47
2023-02-27T07:11:33.130Z,100916.09
2023-02-27T07:14:35.391Z,100924.81
2023-02-27T07:17:39.656Z,100922.66
2023-02-27T07:20:41.951Z,100925.81
2023-02-27T07:23:44.462Z,100930.16
2023-02-27T07:26:46.613Z,100935.78
2023-02-27T07:29:49.298Z,100942.31
2023-02-27T07:32:51.850Z,100932.97
2023-02-27T07:35:54.342Z,100943.53
2023-02-27T07:38:58.170Z,100943.88
2023-02-27T07:42:00.960Z,100950.13
2023-02-27T07:45:04.017Z,100948.78
2023-02-27T07:48:07.263Z,100945.91
2023-02-27T07:51:09.738Z,100958.09
2023-02-27T07:54:12.487Z,100964.06
2023-02-27T07:57:14.938Z,100954.31
2023-02-27T08:00:18.103Z,100949.47
2023-02-27T08:03:20.834Z,100952.69
2023-02-27T08:06:23.617Z,100966.06
2023-02-27T08:09:26.091Z,100964.34
2023-02-27T08:12:28.304Z,100969.34
2023-02-27T08:15:32.669Z,100970.34
2023-02-27T08:18:35.118Z,100978.91
2023-02-27T08:21:37.715Z,100984.62
2023-02-27T08:24:40.588Z,100994.13
2023-02-27T08:27:43.152Z,100997.00
2023-02-27T08:30:45.291Z,100990.22
2023-02-27T08:33:49.593Z,100994.94
2023-02-27T08:36:55.323Z,101006.87
2023-02-27T08:39:57.880Z,101006.00
2023-02-27T08:43:01.252Z,101015.59
2023-02-27T08:46:03.952Z,101022.88
2023-02-27T08:49:06.734Z,101028.44
2023-02-27T08:52:09.924Z,101026.47
2023-02-27T08:55:12.209Z,101036.72
2023-02-27T08:58:17.001Z,101036.72
2023-02-27T09:01:19.715Z,101039.22
2023-02-27T09:04:22.580Z,101041.56
2023-02-27T09:07:25.150Z,101040.37
2023-02-27T09:10:29.545Z,101029.38
2023-02-27T09:13:31.721Z,101039.16
2023-02-27T09:16:34.323Z,101041.69
2023-02-27T09:19:36.813Z,101047.34
2023-02-27T09:22:39.721Z,101046.31
2023-02-27T09:25:42.047Z,101044.88
2023-02-27T09:28:45.827Z,101055.00
2023-02-27T09:31:48.800Z,101050.78
2023-02-27T09:34:51.672Z,101044.56
2023-02-27T09:37:54.033Z,101053.16
2023-02-27T09:40:56.880Z,101052.03
2023-02-27T09:44:08.830Z,101046.25
2023-02-27T09:47:16.985Z,101050.03
2023-02-27T09:50:42.397Z,101054.78
2023-02-27T09:53:50.069Z,101057.41
2023-02-27T09:56:57.150Z,101060.63
2023-02-27T10:00:07.302Z,101055.25
2023-02-27T10:03:35.484Z,101062.22
2023-02-27T10:06:56.405Z,101059.44
2023-02-27T10:10:07.941Z,101059.06
2023-02-27T10:13:41.478Z,101062.22
2023-02-27T10:16:44.030Z,101063.47
2023-02-27T10:19:50.092Z,101067.63
2023-02-27T10:22:55.142Z,101064.59
2023-02-27T10:25:58.496Z,101057.34
2023-02-27T10:29:13.886Z,101060.06
2023-02-27T10:32:25.146Z,101060.22
2023-02-27T10:35:33.926Z,101058.13
2023-02-27T10:38:41.678Z,101053.75
2023-02-27T10:41:45.618Z,101056.41
2023-02-27T10:44:53.524Z,101060.25
2023-02-27T10:47:55.836Z,101055.38
2023-02-27T10:51:30.359Z,101049.34
2023-02-27T10:54:32.831Z,101056.50
2023-02-27T10:57:43.752Z,101063.87
2023-02-27T11:00:53.464Z,101057.28
2023-02-27T11:03:57.039Z,101055.56
2023-02-27T11:07:01.812Z,101059.56
2023-02-27T11:10:13.524Z,101049.75
2023-02-27T11:13:21.648Z,101055.91
2023-02-27T11:16:24.218Z,101057.31
2023-02-27T11:19:33.397Z,101052.81
2023-02-27T11:22:35.960Z,101055.22
2023-02-27T11:25:38.382Z,101059.22
2023-02-27T11:28:41.784Z,101056.31
2023-02-27T11:31:56.321Z,101070.34
2023-02-27T11:34:59.008Z,101063.87
2023-02-27T11:38:04.720Z,101066.97
2023-02-27T11:41:08.981Z,101069.50
2023-02-27T11:44:17.790Z,101063.81
2023-02-27T11:47:34.038Z,101065.62
2023-02-27T11:50:51.963Z,101060.84
2023-02-27T11:54:16.113Z,101065.78
2023-02-27T11:57:27.442Z,101053.09
2023-02-27T12:00:36.401Z,101056.16
2023-02-27T12:03:50.184Z,101047.69
2023-02-27T12:07:13.349Z,101053.41
2023-02-27T12:10:20.605Z,101065.53
2023-02-27T12:13:27.306Z,101057.25
2023-02-27T12:16:50.777Z,101049.81
2023-02-27T12:20:14.155Z,101057.03
2023-02-27T12:23:29.064Z,101053.81
2023-02-27T12:26:39.855Z,101059.75
2023-02-27T12:29:49.910Z,101070.66
2023-02-27T12:33:32.395Z,101066.03
2023-02-27T12:36:35.048Z,101074.66
2023-02-27T12:39:39.334Z,101082.56
2023-02-27T12:43:00.659Z,101075.25
2023-02-27T12:46:29.981Z,101075.56
2023-02-27T12:49:38.817Z,101080.97
2023-02-27T12:53:00.892Z,101078.38
2023-02-27T12:56:19.409Z,101079.06
2023-02-27T12:59:39.995Z,101077.37
2023-02-27T13:02:49.044Z,101087.69
2023-02-27T13:06:11.697Z,101078.53
2023-02-27T13:09:28.543Z,101083.12
2023-02-27T13:12:49.756Z,101082.19
2023-02-27T13:16:00.912Z,101085.81
2023-02-27T13:19:15.674Z,101087.75
2023-02-27T13:22:32.658Z,101083.06
2023-02-27T13:25:38.708Z,101095.34
2023-02-27T13:28:41.648Z,101090.75
2023-02-27T13:32:05.947Z,101090.56
2023-02-27T13:35:30.959Z,101106.28
2023-02-27T13:38:45.172Z,101098.72
2023-02-27T13:41:47.696Z,101099.53
2023-02-27T13:44:49.845Z,101098.06
2023-02-27T13:47:52.385Z,101098.25
2023-02-27T13:50:54.802Z,101106.19
2023-02-27T13:54:18.626Z,101108.72
2023-02-27T13:57:33.052Z,101104.13
2023-02-27T14:00:37.855Z,101101.31
2023-02-27T14:03:40.584Z,101098.53
2023-02-27T14:06:47.531Z,101104.25
2023-02-27T14:09:53.597Z,101095.56
2023-02-27T14:12:57.525Z,101092.97
2023-02-27T14:16:00.898Z,101090.38
2023-02-27T14:19:23.161Z,101091.37
2023-02-27T14:22:33.473Z,101095.78
2023-02-27T14:25:39.225Z,101089.03
2023-02-27T14:29:01.083Z,101090.69
2023-02-27T14:32:08.829Z,101102.41
2023-02-27T14:35:16.187Z,101100.22
2023-02-27T14:38:20.938Z,101099.66
2023-02-27T14:41:51.472Z,101095.59
2023-02-27T14:44:54.268Z,101102.13
2023-02-27T14:47:57.893Z,101104.63
2023-02-27T14:51:01.815Z,101102.13
2023-02-27T14:54:15.566Z,101105.44
2023-02-27T14:57:21.394Z,101108.81
2023-02-27T15:00:33.054Z,101118.22
2023-02-27T15:03:42.016Z,101115.09
2023-02-27T15:06:48.828Z,101110.75
2023-02-27T15:09:53.812Z,101118.13
2023-02-27T15:12:58.300Z,101118.97
2023-02-27T15:16:19.678Z,101119.69
2023-02-27T15:19:24.974Z,101135.09
2023-02-27T15:22:39.031Z,101134.84
2023-02-27T15:25:41.815Z,101140.03
2023-02-27T15:28:44.138Z,101144.00
2023-02-27T15:31:46.712Z,101152.88
2023-02-27T15:34:49.270Z,101154.34
2023-02-27T15:37:53.897Z,101160.03
2023-02-27T15:40:57.732Z,101167.66
2023-02-27T15:44:02.330Z,101166.28
2023-02-27T15:47:05.366Z,101178.78
2023-02-27T15:50:24.452Z,101178.25
2023-02-27T15:53:28.955Z,101183.19
2023-02-27T15:56:37.687Z,101193.84
2023-02-27T15:59:42.494Z,101194.38
2023-02-27T16:02:48.554Z,101188.44
2023-02-27T16:05:53.290Z,101195.19
2023-02-27T16:09:01.711Z,101200.31
2023-02-27T16:12:17.361Z,101200.78
2023-02-27T16:15:31.506Z,101210.44
2023-02-27T16:18:52.784Z,101218.50
2023-02-27T16:22:17.137Z,101213.31
2023-02-27T16:25:20.394Z,101223.84
2023-02-27T16:28:22.587Z,101228.59
2023-02-27T16:31:34.786Z,101240.94
2023-02-27T16:34:48.443Z,101241.03
2023-02-27T16:37:51.436Z,101249.66
2023-02-27T16:40:53.604Z,101255.81
2023-02-27T16:43:56.366Z,101257.69
2023-02-27T16:47:02.426Z,101266.59
2023-02-27T16:50:10.073Z,101270.19
2023-02-27T16:53:12.281Z,101272.03
2023-02-27T16:56:15.206Z,101278.94
2023-02-27T16:59:30.412Z,101276.31
2023-02-27T17:02:33.153Z,101283.38
2023-02-27T17:05:35.440Z,101290.56
2023-02-27T17:08:43.962Z,101301.87
2023-02-27T17:11:46.303Z,101304.59
2023-02-27T17:14:48.773Z,101303.81
2023-02-27T17:17:50.961Z,101303.91
2023-02-27T17:20:54.133Z,101304.97
2023-02-27T17:23:56.379Z,101305.25
2023-02-27T17:26:58.893Z,101308.13
2023-02-27T17:30:01.131Z,101311.69
2023-02-27T17:33:04.314Z,101314.31
2023-02-27T17:36:09.205Z,101321.41
2023-02-27T17:39:14.129Z,101318.00
2023-02-27T17:42:18.509Z,101319.91
2023-02-27T17:45:21.479Z,101315.66
2023-02-27T17:48:24.236Z,101327.91
2023-02-27T17:51:28.703Z,101323.69
2023-02-27T17:54:30.923Z,101328.16
2023-02-27T17:57:36.188Z,101328.09
2023-02-27T18:00:38.401Z,101335.06
2023-02-27T18:03:41.339Z,101345.87
2023-02-27T18:06:44.192Z,101345.87
2023-02-27T18:09:46.811Z,101351.31
2023-02-27T18:12:48.932Z,101358.53
2023-02-27T18:15:52.038Z,101358.34
2023-02-27T18:18:54.325Z,101352.94
2023-02-27T18:21:57.079Z,101357.78
2023-02-27T18:24:59.246Z,101367.34
2023-02-27T18:28:01.829Z,101384.62
2023-02-27T18:31:04.221Z,101382.22
2023-02-27T18:34:07.720Z,101387.97
2023-02-27T18:37:10.941Z,101381.56
2023-02-27T18:40:16.021Z,101377.44
2023-02-27T18:43:18.157Z,101383.84
2023-02-27T18:46:20.980Z,101386.56
2023-02-27T18:49:23.340Z,101397.22
2023-02-27T18:52:25.953Z,101401.75
2023-02-27T18:55:28.146Z,101410.56
2023-02-27T18:58:31.256Z,101408.12
2023-02-27T19:01:38.027Z,101413.50
2023-02-27T19:04:40.522Z,101422.38
2023-02-27T19:07:43.055Z,101427.72
2023-02-27T19:10:45.929Z,101437.41
2023-02-27T19:13:48.122Z,101445.31
2023-02-27T19:16:51.003Z,101448.81
2023-02-27T19:19:53.672Z,101444.59
2023-02-27T19:22:56.266Z,101444.63
2023-02-27T19:26:00.089Z,101465.59
2023-02-27T19:29:03.260Z,101468.25
2023-02-27T19:32:07.584Z,101477.87
2023-02-27T19:35:14.277Z,101473.59
2023-02-27T19:38:17.165Z,101472.84
2023-02-27T19:41:21.404Z,101475.41
2023-02-27T19:44:23.687Z,101475.41
2023-02-27T19:47:26.201Z,101467.63
2023-02-27T19:50:30.203Z,101474.59
2023-02-27T19:53:35.870Z,101470.28
2023-02-27T19:56:38.125Z,101471.13
2023-02-27T19:59:40.709Z,101492.94
2023-02-27T20:02:43.376Z,101492.22
2023-02-27T20:05:45.868Z,101503.44
2023-02-27T20:08:48.238Z,101516.69
2023-02-27T20:11:53.885Z,101515.13
2023-02-27T20:14:56.004Z,101525.59
2023-02-27T20:17:58.417Z,101528.19
2023-02-27T20:21:03.268Z,101542.84
2023-02-27T20:24:06.001Z,101528.78
2023-02-27T20:27:08.113Z,101535.84
2023-02-27T20:30:12.161Z,101522.59
2023-02-27T20:33:14.570Z,101532.97
2023-02-27T20:36:17.239Z,101524.38
2023-02-27T20:39:20.427Z,101537.44
2023-02-27T20:42:22.866Z,101534.87
2023-02-27T20:45:25.450Z,101548.16
2023-02-27T20:48:27.936Z,101552.75
2023-02-27T20:51:37.232Z,101550.25
2023-02-27T20:54:39.716Z,101557.41
2023-02-27T20:57:41.924Z,101554.09
2023-02-27T21:00:44.437Z,101562.03
2023-02-27T21:03:50.356Z,101554.16
2023-02-27T21:06:54.547Z,101554.78
2023-02-27T21:09:56.750Z,101551.13
2023-02-27T21:12:59.212Z,101558.19
2023-02-27T21:16:07.349Z,101563.59
2023-02-27T21:19:09.989Z,101561.88
2023-02-27T21:26:47.913Z,101577.34
2023-02-27T21:29:50.796Z,101580.75
2023-02-27T21:32:53.067Z,101585.78
2023-02-27T21:35:55.575Z,101570.91
2023-02-27T21:39:00.010Z,101564.06
2023-02-27T21:42:02.568Z,101569.53
2023-02-27T21:45:05.423Z,101583.38
2023-02-27T21:48:08.228Z,101580.66
2023-02-27T21:51:10.493Z,101588.50
2023-02-27T21:54:14.800Z,101589.34
2023-02-27T21:57:16.971Z,101594.53
2023-02-27T22:00:20.242Z,101592.84
2023-02-27T22:03:22.792Z,101580.50
2023-02-27T22:06:27.811Z,101566.53
2023-02-27T22:09:30.423Z,101565.56
2023-02-27T22:12:32.641Z,101571.72
2023-02-27T22:15:36.303Z,101569.03
2023-02-27T22:18:40.472Z,101562.97
2023-02-27T22:21:42.944Z,101562.22
2023-02-27T22:24:51.185Z,101567.44
2023-02-27T22:27:53.696Z,101571.69
2023-02-27T22:31:08.337Z,101571.47
2023-02-27T22:34:17.917Z,101568.25
2023-02-27T22:37:20.190Z,101563.88
2023-02-27T22:40:22.762Z,101562.94
2023-02-27T22:43:24.978Z,101563.00
2023-02-27T22:46:39.650Z,101564.44
2023-02-27T22:49:41.873Z,101567.91
2023-02-27T22:52:44.478Z,101579.41
2023-02-27T22:55:53.235Z,101576.69
2023-02-27T22:58:55.825Z,101577.53
2023-02-27T23:01:58.084Z,101586.28
2023-02-27T23:05:00.654Z,101583.50
2023-02-27T23:08:03.694Z,101578.28
2023-02-27T23:11:06.721Z,101572.16
2023-02-27T23:14:09.468Z,101579.97
2023-02-27T23:17:11.870Z,101574.38
2023-02-27T23:20:14.126Z,101570.06
2023-02-27T23:23:16.653Z,101577.06
2023-02-27T23:26:18.854Z,101578.84
2023-02-27T23:29:21.679Z,101580.50
2023-02-27T23:32:23.997Z,101582.16
2023-02-27T23:35:27.974Z,101576.00
2023-02-27T23:38:30.172Z,101582.09
2023-02-27T23:41:32.923Z,101585.72
2023-02-27T23:44:53.913Z,101581.41
2023-02-27T23:47:58.794Z,101589.28
2023-02-27T23:51:03.162Z,101591.72
2023-02-27T23:54:05.712Z,101593.56
2023-02-27T23:57:07.939Z,101591.72
